Diyarbakir, Turkey
Current Conditions -  °F | °C
As of 10:20 AM on Wednesday 26 Nov 2014 (Local Time) from LTCC Reporting Station
Light Rain Light Rain  
Wind Chill: 37°   Ceiling: 3500
Heat Index: 41°   Visibility: 0.75mi
Dew Point: 41°   Wind: 6mph
Humidity: 100%   Direction: 90°E
Pressure: 29.91"   Gusts: NA
Location:  37.92°N, 40.23°E
Report Text: LTCC 260720Z 09005KT 1200 R34/1000N R16/P1500U -RA BR SCT008 BKN035 OVC090 05/05 Q1013 NOSIG
Loading
Personal Weather Stations






























Interactive Weather Map New forecast layout! Learn more

10-Day Weather Forecast

Advertisements
Track Severe Weather on mobile